sensor_id;sensor_type;location;lat;lon;timestamp;temperature;humidity
51615;DHT22;37695;52.960;6.188;2023-04-12T00:01:35;8.30;99.90
51615;DHT22;37695;52.960;6.188;2023-04-12T00:04:00;8.30;99.90
51615;DHT22;37695;52.960;6.188;2023-04-12T00:06:28;8.20;99.90
51615;DHT22;37695;52.960;6.188;2023-04-12T00:09:00;8.20;99.90
51615;DHT22;37695;52.960;6.188;2023-04-12T00:11:27;8.20;99.90
51615;DHT22;37695;52.960;6.188;2023-04-12T00:13:53;8.20;99.90
51615;DHT22;37695;52.960;6.188;2023-04-12T00:16:19;8.20;99.90
51615;DHT22;37695;52.960;6.188;2023-04-12T00:18:45;8.20;99.90
51615;DHT22;37695;52.960;6.188;2023-04-12T00:21:10;8.30;99.90
51615;DHT22;37695;52.960;6.188;2023-04-12T00:23:36;8.30;99.90
51615;DHT22;37695;52.960;6.188;2023-04-12T00:26:05;8.40;99.90
51615;DHT22;37695;52.960;6.188;2023-04-12T00:28:31;8.30;99.90
51615;DHT22;37695;52.960;6.188;2023-04-12T00:30:56;8.40;99.90
51615;DHT22;37695;52.960;6.188;2023-04-12T00:33:22;8.40;99.90
51615;DHT22;37695;52.960;6.188;2023-04-12T00:35:47;8.40;99.90
51615;DHT22;37695;52.960;6.188;2023-04-12T00:38:13;8.40;99.90
51615;DHT22;37695;52.960;6.188;2023-04-12T00:40:41;8.50;99.90
51615;DHT22;37695;52.960;6.188;2023-04-12T00:43:07;8.50;99.90
51615;DHT22;37695;52.960;6.188;2023-04-12T00:45:33;8.40;99.90
51615;DHT22;37695;52.960;6.188;2023-04-12T00:47:59;8.50;99.90
51615;DHT22;37695;52.960;6.188;2023-04-12T00:50:25;8.40;99.90
51615;DHT22;37695;52.960;6.188;2023-04-12T00:52:53;8.40;99.90
51615;DHT22;37695;52.960;6.188;2023-04-12T00:55:19;8.40;99.90
51615;DHT22;37695;52.960;6.188;2023-04-12T00:57:45;9.20;99.90
51615;DHT22;37695;52.960;6.188;2023-04-12T01:00:11;8.40;99.90
51615;DHT22;37695;52.960;6.188;2023-04-12T01:02:39;8.40;99.90
51615;DHT22;37695;52.960;6.188;2023-04-12T01:05:06;8.40;99.90
51615;DHT22;37695;52.960;6.188;2023-04-12T01:07:44;9.20;99.90
51615;DHT22;37695;52.960;6.188;2023-04-12T01:10:38;8.40;99.90
51615;DHT22;37695;52.960;6.188;2023-04-12T01:13:25;8.40;99.90
51615;DHT22;37695;52.960;6.188;2023-04-12T01:15:59;8.40;99.90
51615;DHT22;37695;52.960;6.188;2023-04-12T01:18:29;8.40;99.90
51615;DHT22;37695;52.960;6.188;2023-04-12T01:21:05;8.40;99.90
51615;DHT22;37695;52.960;6.188;2023-04-12T01:26:46;8.50;99.90
51615;DHT22;37695;52.960;6.188;2023-04-12T01:29:15;8.40;99.90
51615;DHT22;37695;52.960;6.188;2023-04-12T01:31:50;8.50;99.90
51615;DHT22;37695;52.960;6.188;2023-04-12T01:34:18;8.40;99.90
51615;DHT22;37695;52.960;6.188;2023-04-12T01:36:46;8.40;99.90
51615;DHT22;37695;52.960;6.188;2023-04-12T01:39:12;8.50;99.90
51615;DHT22;37695;52.960;6.188;2023-04-12T01:41:39;8.50;99.90
51615;DHT22;37695;52.960;6.188;2023-04-12T01:44:06;8.50;99.90
51615;DHT22;37695;52.960;6.188;2023-04-12T01:46:32;8.50;99.90
51615;DHT22;37695;52.960;6.188;2023-04-12T01:48:58;8.50;99.90
51615;DHT22;37695;52.960;6.188;2023-04-12T01:54:26;8.50;99.90
51615;DHT22;37695;52.960;6.188;2023-04-12T01:56:55;8.40;99.90
51615;DHT22;37695;52.960;6.188;2023-04-12T01:59:25;8.40;99.90
51615;DHT22;37695;52.960;6.188;2023-04-12T02:01:51;8.40;99.90
51615;DHT22;37695;52.960;6.188;2023-04-12T02:04:18;8.40;99.90
51615;DHT22;37695;52.960;6.188;2023-04-12T02:06:46;8.40;99.90
51615;DHT22;37695;52.960;6.188;2023-04-12T02:09:12;8.40;99.90
51615;DHT22;37695;52.960;6.188;2023-04-12T02:11:37;8.40;99.90
51615;DHT22;37695;52.960;6.188;2023-04-12T02:14:03;8.30;99.90
51615;DHT22;37695;52.960;6.188;2023-04-12T02:16:29;8.40;99.90
51615;DHT22;37695;52.960;6.188;2023-04-12T02:18:56;8.40;99.90
51615;DHT22;37695;52.960;6.188;2023-04-12T02:21:23;8.30;99.90
51615;DHT22;37695;52.960;6.188;2023-04-12T02:23:49;8.40;99.90
51615;DHT22;37695;52.960;6.188;2023-04-12T02:26:15;8.40;99.90
51615;DHT22;37695;52.960;6.188;2023-04-12T02:28:41;8.40;99.90
51615;DHT22;37695;52.960;6.188;2023-04-12T02:31:07;8.40;99.90
51615;DHT22;37695;52.960;6.188;2023-04-12T02:33:32;8.40;99.90
51615;DHT22;37695;52.960;6.188;2023-04-12T02:35:59;8.40;99.90
51615;DHT22;37695;52.960;6.188;2023-04-12T02:38:27;8.40;99.90
51615;DHT22;37695;52.960;6.188;2023-04-12T02:40:53;8.40;99.90
51615;DHT22;37695;52.960;6.188;2023-04-12T02:43:19;8.40;99.90
51615;DHT22;37695;52.960;6.188;2023-04-12T02:45:45;8.40;99.90
51615;DHT22;37695;52.960;6.188;2023-04-12T02:48:11;8.40;99.90
51615;DHT22;37695;52.960;6.188;2023-04-12T02:50:36;8.40;99.90
51615;DHT22;37695;52.960;6.188;2023-04-12T02:53:02;8.40;99.90
51615;DHT22;37695;52.960;6.188;2023-04-12T02:55:27;8.40;99.90
51615;DHT22;37695;52.960;6.188;2023-04-12T02:57:55;8.40;99.90
51615;DHT22;37695;52.960;6.188;2023-04-12T03:00:21;8.40;99.90
51615;DHT22;37695;52.960;6.188;2023-04-12T03:02:47;8.40;99.90
51615;DHT22;37695;52.960;6.188;2023-04-12T03:05:15;8.40;99.90
51615;DHT22;37695;52.960;6.188;2023-04-12T03:07:42;8.40;99.90
51615;DHT22;37695;52.960;6.188;2023-04-12T03:10:08;8.40;99.90
51615;DHT22;37695;52.960;6.188;2023-04-12T03:12:35;8.40;99.90
51615;DHT22;37695;52.960;6.188;2023-04-12T03:15:01;8.40;99.90
51615;DHT22;37695;52.960;6.188;2023-04-12T03:17:27;8.40;99.90
51615;DHT22;37695;52.960;6.188;2023-04-12T03:19:52;8.40;99.90
51615;DHT22;37695;52.960;6.188;2023-04-12T03:22:18;8.40;99.90
51615;DHT22;37695;52.960;6.188;2023-04-12T03:24:43;8.40;99.90
51615;DHT22;37695;52.960;6.188;2023-04-12T03:27:10;8.40;99.90
51615;DHT22;37695;52.960;6.188;2023-04-12T03:29:35;8.30;99.90
51615;DHT22;37695;52.960;6.188;2023-04-12T03:32:01;8.40;99.90
51615;DHT22;37695;52.960;6.188;2023-04-12T03:34:27;8.40;99.90
51615;DHT22;37695;52.960;6.188;2023-04-12T03:36:57;8.30;99.90
51615;DHT22;37695;52.960;6.188;2023-04-12T03:39:23;8.30;99.90
51615;DHT22;37695;52.960;6.188;2023-04-12T03:41:48;8.40;99.90
51615;DHT22;37695;52.960;6.188;2023-04-12T03:44:14;8.40;99.90
51615;DHT22;37695;52.960;6.188;2023-04-12T03:46:40;7.80;99.90
51615;DHT22;37695;52.960;6.188;2023-04-12T03:49:05;8.30;99.90
51615;DHT22;37695;52.960;6.188;2023-04-12T03:51:31;8.30;99.90
51615;DHT22;37695;52.960;6.188;2023-04-12T03:53:56;8.30;99.90
51615;DHT22;37695;52.960;6.188;2023-04-12T03:56:22;8.30;99.90
51615;DHT22;37695;52.960;6.188;2023-04-12T03:58:47;8.30;99.90
51615;DHT22;37695;52.960;6.188;2023-04-12T04:01:14;8.30;99.90
51615;DHT22;37695;52.960;6.188;2023-04-12T04:03:42;8.30;99.90
51615;DHT22;37695;52.960;6.188;2023-04-12T04:06:09;8.30;99.90
51615;DHT22;37695;52.960;6.188;2023-04-12T04:08:36;8.30;99.90
51615;DHT22;37695;52.960;6.188;2023-04-12T04:11:02;8.30;99.90
51615;DHT22;37695;52.960;6.188;2023-04-12T04:13:27;8.20;99.90
51615;DHT22;37695;52.960;6.188;2023-04-12T04:16:02;8.30;99.90
51615;DHT22;37695;52.960;6.188;2023-04-12T04:18:28;8.30;99.90
51615;DHT22;37695;52.960;6.188;2023-04-12T04:20:54;8.30;99.90
51615;DHT22;37695;52.960;6.188;2023-04-12T04:23:20;8.20;99.90
51615;DHT22;37695;52.960;6.188;2023-04-12T04:25:47;8.20;99.90
51615;DHT22;37695;52.960;6.188;2023-04-12T04:28:13;8.20;99.90
51615;DHT22;37695;52.960;6.188;2023-04-12T04:30:40;8.20;99.90
51615;DHT22;37695;52.960;6.188;2023-04-12T04:33:06;8.20;99.90
51615;DHT22;37695;52.960;6.188;2023-04-12T04:35:32;8.20;99.90
51615;DHT22;37695;52.960;6.188;2023-04-12T04:37:57;8.20;99.90
51615;DHT22;37695;52.960;6.188;2023-04-12T04:40:25;8.10;99.90
51615;DHT22;37695;52.960;6.188;2023-04-12T04:42:50;8.10;99.90
51615;DHT22;37695;52.960;6.188;2023-04-12T04:45:23;8.10;99.90
51615;DHT22;37695;52.960;6.188;2023-04-12T04:47:54;8.10;99.90
51615;DHT22;37695;52.960;6.188;2023-04-12T04:50:21;8.10;99.90
51615;DHT22;37695;52.960;6.188;2023-04-12T04:52:50;8.00;99.90
51615;DHT22;37695;52.960;6.188;2023-04-12T04:55:16;8.00;99.90
51615;DHT22;37695;52.960;6.188;2023-04-12T04:57:43;8.00;99.90
51615;DHT22;37695;52.960;6.188;2023-04-12T05:00:09;8.00;99.90
51615;DHT22;37695;52.960;6.188;2023-04-12T05:02:39;8.00;99.90
51615;DHT22;37695;52.960;6.188;2023-04-12T05:05:08;8.00;99.90
51615;DHT22;37695;52.960;6.188;2023-04-12T05:07:33;8.00;99.90
51615;DHT22;37695;52.960;6.188;2023-04-12T05:09:59;8.00;99.90
51615;DHT22;37695;52.960;6.188;2023-04-12T05:12:24;8.00;99.90
51615;DHT22;37695;52.960;6.188;2023-04-12T05:14:50;8.00;99.90
51615;DHT22;37695;52.960;6.188;2023-04-12T05:17:16;8.00;99.90
51615;DHT22;37695;52.960;6.188;2023-04-12T05:19:42;8.00;99.90
51615;DHT22;37695;52.960;6.188;2023-04-12T05:22:09;8.00;99.90
51615;DHT22;37695;52.960;6.188;2023-04-12T05:24:34;8.00;99.90
51615;DHT22;37695;52.960;6.188;2023-04-12T05:27:00;7.90;99.90
51615;DHT22;37695;52.960;6.188;2023-04-12T05:29:26;8.00;99.90
51615;DHT22;37695;52.960;6.188;2023-04-12T05:31:51;8.00;99.90
51615;DHT22;37695;52.960;6.188;2023-04-12T05:34:17;8.00;99.90
51615;DHT22;37695;52.960;6.188;2023-04-12T05:36:42;8.00;99.90
51615;DHT22;37695;52.960;6.188;2023-04-12T05:39:08;8.00;99.90
51615;DHT22;37695;52.960;6.188;2023-04-12T05:41:34;8.00;99.90
51615;DHT22;37695;52.960;6.188;2023-04-12T05:44:00;8.00;99.90
51615;DHT22;37695;52.960;6.188;2023-04-12T05:46:25;8.00;99.90
51615;DHT22;37695;52.960;6.188;2023-04-12T05:48:51;8.00;99.90
51615;DHT22;37695;52.960;6.188;2023-04-12T05:51:16;8.00;99.90
51615;DHT22;37695;52.960;6.188;2023-04-12T05:53:42;8.00;99.90
51615;DHT22;37695;52.960;6.188;2023-04-12T05:56:07;8.00;99.90
51615;DHT22;37695;52.960;6.188;2023-04-12T05:58:33;8.00;99.90
51615;DHT22;37695;52.960;6.188;2023-04-12T06:00:59;8.00;99.90
51615;DHT22;37695;52.960;6.188;2023-04-12T06:03:24;8.00;99.90
51615;DHT22;37695;52.960;6.188;2023-04-12T06:05:51;8.00;99.90
51615;DHT22;37695;52.960;6.188;2023-04-12T06:08:17;7.90;99.90
51615;DHT22;37695;52.960;6.188;2023-04-12T06:10:43;7.90;99.90
51615;DHT22;37695;52.960;6.188;2023-04-12T06:13:08;7.90;99.90
51615;DHT22;37695;52.960;6.188;2023-04-12T06:15:34;7.90;99.90
51615;DHT22;37695;52.960;6.188;2023-04-12T06:18:00;8.00;99.90
51615;DHT22;37695;52.960;6.188;2023-04-12T06:20:26;8.00;99.90
51615;DHT22;37695;52.960;6.188;2023-04-12T06:22:51;7.90;99.90
51615;DHT22;37695;52.960;6.188;2023-04-12T06:25:17;8.00;99.90
51615;DHT22;37695;52.960;6.188;2023-04-12T06:27:43;8.00;99.90
51615;DHT22;37695;52.960;6.188;2023-04-12T06:30:08;8.00;99.90
51615;DHT22;37695;52.960;6.188;2023-04-12T06:32:35;8.00;99.90
51615;DHT22;37695;52.960;6.188;2023-04-12T06:35:03;8.00;99.90
51615;DHT22;37695;52.960;6.188;2023-04-12T06:37:29;8.00;99.90
51615;DHT22;37695;52.960;6.188;2023-04-12T06:39:54;8.00;99.90
51615;DHT22;37695;52.960;6.188;2023-04-12T06:42:20;8.00;99.90
51615;DHT22;37695;52.960;6.188;2023-04-12T06:44:45;8.00;99.90
51615;DHT22;37695;52.960;6.188;2023-04-12T06:47:11;8.00;99.90
51615;DHT22;37695;52.960;6.188;2023-04-12T06:49:37;8.00;99.90
51615;DHT22;37695;52.960;6.188;2023-04-12T06:52:03;8.10;99.90
51615;DHT22;37695;52.960;6.188;2023-04-12T06:54:28;8.10;99.90
51615;DHT22;37695;52.960;6.188;2023-04-12T06:56:54;8.10;99.90
51615;DHT22;37695;52.960;6.188;2023-04-12T06:59:21;8.10;99.90
51615;DHT22;37695;52.960;6.188;2023-04-12T07:01:47;8.10;99.90
51615;DHT22;37695;52.960;6.188;2023-04-12T07:04:12;8.10;99.90
51615;DHT22;37695;52.960;6.188;2023-04-12T07:06:38;8.70;99.90
51615;DHT22;37695;52.960;6.188;2023-04-12T07:09:04;8.10;99.90
51615;DHT22;37695;52.960;6.188;2023-04-12T07:11:29;8.20;99.90
51615;DHT22;37695;52.960;6.188;2023-04-12T07:13:56;8.20;99.90
51615;DHT22;37695;52.960;6.188;2023-04-12T07:16:23;8.20;99.90
51615;DHT22;37695;52.960;6.188;2023-04-12T07:18:49;8.30;99.90
51615;DHT22;37695;52.960;6.188;2023-04-12T07:21:15;8.30;99.90
51615;DHT22;37695;52.960;6.188;2023-04-12T07:23:42;8.30;99.90
51615;DHT22;37695;52.960;6.188;2023-04-12T07:26:07;8.30;99.90
51615;DHT22;37695;52.960;6.188;2023-04-12T07:28:33;8.30;99.90
51615;DHT22;37695;52.960;6.188;2023-04-12T07:31:03;8.40;99.90
51615;DHT22;37695;52.960;6.188;2023-04-12T07:33:28;8.40;99.90
51615;DHT22;37695;52.960;6.188;2023-04-12T07:35:54;8.40;99.90
51615;DHT22;37695;52.960;6.188;2023-04-12T07:38:20;8.40;99.90
51615;DHT22;37695;52.960;6.188;2023-04-12T07:40:45;8.40;99.90
51615;DHT22;37695;52.960;6.188;2023-04-12T07:43:11;8.50;99.90
51615;DHT22;37695;52.960;6.188;2023-04-12T07:45:36;8.50;99.90
51615;DHT22;37695;52.960;6.188;2023-04-12T07:48:02;8.50;99.90
51615;DHT22;37695;52.960;6.188;2023-04-12T07:50:28;8.50;99.90
51615;DHT22;37695;52.960;6.188;2023-04-12T07:53:01;8.60;99.90
51615;DHT22;37695;52.960;6.188;2023-04-12T07:55:41;8.60;99.90
51615;DHT22;37695;52.960;6.188;2023-04-12T07:58:06;8.60;99.90
51615;DHT22;37695;52.960;6.188;2023-04-12T08:00:32;8.70;99.90
51615;DHT22;37695;52.960;6.188;2023-04-12T08:02:58;8.80;99.90
51615;DHT22;37695;52.960;6.188;2023-04-12T08:05:24;8.80;99.90
51615;DHT22;37695;52.960;6.188;2023-04-12T08:07:49;8.80;99.90
51615;DHT22;37695;52.960;6.188;2023-04-12T08:10:15;8.80;99.90
51615;DHT22;37695;52.960;6.188;2023-04-12T08:12:41;8.90;99.90
51615;DHT22;37695;52.960;6.188;2023-04-12T08:15:07;8.90;99.90
51615;DHT22;37695;52.960;6.188;2023-04-12T08:17:32;8.90;99.90
51615;DHT22;37695;52.960;6.188;2023-04-12T08:19:58;9.00;99.90
51615;DHT22;37695;52.960;6.188;2023-04-12T08:22:23;9.00;99.90
51615;DHT22;37695;52.960;6.188;2023-04-12T08:24:49;9.00;99.90
51615;DHT22;37695;52.960;6.188;2023-04-12T08:27:14;9.00;99.90
51615;DHT22;37695;52.960;6.188;2023-04-12T08:29:40;9.10;99.90
51615;DHT22;37695;52.960;6.188;2023-04-12T08:32:06;9.10;99.90
51615;DHT22;37695;52.960;6.188;2023-04-12T08:34:33;9.10;99.90
51615;DHT22;37695;52.960;6.188;2023-04-12T08:36:59;9.10;99.90
51615;DHT22;37695;52.960;6.188;2023-04-12T08:39:25;9.10;99.90
51615;DHT22;37695;52.960;6.188;2023-04-12T08:41:53;9.10;99.90
51615;DHT22;37695;52.960;6.188;2023-04-12T08:44:32;9.20;99.90
51615;DHT22;37695;52.960;6.188;2023-04-12T08:47:00;9.20;99.90
51615;DHT22;37695;52.960;6.188;2023-04-12T08:49:26;9.30;99.90
51615;DHT22;37695;52.960;6.188;2023-04-12T08:51:52;9.40;99.90
51615;DHT22;37695;52.960;6.188;2023-04-12T08:54:19;9.50;99.90
51615;DHT22;37695;52.960;6.188;2023-04-12T08:56:45;9.50;99.90
51615;DHT22;37695;52.960;6.188;2023-04-12T08:59:12;9.50;99.90
51615;DHT22;37695;52.960;6.188;2023-04-12T09:01:40;9.70;99.90
51615;DHT22;37695;52.960;6.188;2023-04-12T09:04:06;9.80;99.90
51615;DHT22;37695;52.960;6.188;2023-04-12T09:06:32;9.90;99.90
51615;DHT22;37695;52.960;6.188;2023-04-12T09:08:58;10.00;99.90
51615;DHT22;37695;52.960;6.188;2023-04-12T09:11:27;10.20;99.90
51615;DHT22;37695;52.960;6.188;2023-04-12T09:13:56;10.30;99.90
51615;DHT22;37695;52.960;6.188;2023-04-12T09:16:40;10.30;99.90
51615;DHT22;37695;52.960;6.188;2023-04-12T09:19:06;10.50;99.90
51615;DHT22;37695;52.960;6.188;2023-04-12T09:21:33;10.60;99.90
51615;DHT22;37695;52.960;6.188;2023-04-12T09:24:05;10.70;99.90
51615;DHT22;37695;52.960;6.188;2023-04-12T09:26:34;10.80;99.90
51615;DHT22;37695;52.960;6.188;2023-04-12T09:29:00;10.80;99.90
51615;DHT22;37695;52.960;6.188;2023-04-12T09:31:26;10.90;99.90
51615;DHT22;37695;52.960;6.188;2023-04-12T09:33:52;11.10;99.90
51615;DHT22;37695;52.960;6.188;2023-04-12T09:36:37;11.20;99.90
51615;DHT22;37695;52.960;6.188;2023-04-12T09:39:03;11.40;99.90
51615;DHT22;37695;52.960;6.188;2023-04-12T09:41:29;11.40;99.90
51615;DHT22;37695;52.960;6.188;2023-04-12T09:43:57;11.60;99.90
51615;DHT22;37695;52.960;6.188;2023-04-12T09:46:23;11.70;99.90
51615;DHT22;37695;52.960;6.188;2023-04-12T09:48:50;11.70;99.90
51615;DHT22;37695;52.960;6.188;2023-04-12T09:51:30;11.70;99.90
51615;DHT22;37695;52.960;6.188;2023-04-12T09:53:59;11.70;99.90
51615;DHT22;37695;52.960;6.188;2023-04-12T09:56:28;11.70;99.90
51615;DHT22;37695;52.960;6.188;2023-04-12T09:58:56;11.70;99.90
51615;DHT22;37695;52.960;6.188;2023-04-12T10:01:23;11.90;99.90
51615;DHT22;37695;52.960;6.188;2023-04-12T10:03:49;12.00;99.90
51615;DHT22;37695;52.960;6.188;2023-04-12T10:06:15;12.30;99.90
51615;DHT22;37695;52.960;6.188;2023-04-12T10:08:43;12.50;99.90
51615;DHT22;37695;52.960;6.188;2023-04-12T10:11:09;12.50;99.90
51615;DHT22;37695;52.960;6.188;2023-04-12T10:13:35;12.30;99.90
51615;DHT22;37695;52.960;6.188;2023-04-12T10:16:03;12.10;99.90
51615;DHT22;37695;52.960;6.188;2023-04-12T10:18:30;12.00;99.90
51615;DHT22;37695;52.960;6.188;2023-04-12T10:21:00;11.90;99.90
51615;DHT22;37695;52.960;6.188;2023-04-12T10:23:26;11.90;99.90
51615;DHT22;37695;52.960;6.188;2023-04-12T10:25:52;11.90;99.90
51615;DHT22;37695;52.960;6.188;2023-04-12T10:28:19;11.90;99.90
51615;DHT22;37695;52.960;6.188;2023-04-12T10:30:46;12.10;99.90
51615;DHT22;37695;52.960;6.188;2023-04-12T10:33:15;12.10;99.90
51615;DHT22;37695;52.960;6.188;2023-04-12T10:36:00;12.20;99.90
51615;DHT22;37695;52.960;6.188;2023-04-12T10:38:28;12.30;99.90
51615;DHT22;37695;52.960;6.188;2023-04-12T10:43:47;12.30;99.90
51615;DHT22;37695;52.960;6.188;2023-04-12T10:49:11;12.40;99.90
51615;DHT22;37695;52.960;6.188;2023-04-12T10:51:37;12.40;99.90
51615;DHT22;37695;52.960;6.188;2023-04-12T10:56:44;12.10;99.90
51615;DHT22;37695;52.960;6.188;2023-04-12T10:59:13;12.40;99.90
51615;DHT22;37695;52.960;6.188;2023-04-12T11:01:40;12.80;99.90
51615;DHT22;37695;52.960;6.188;2023-04-12T11:04:24;13.00;99.90
51615;DHT22;37695;52.960;6.188;2023-04-12T11:14:37;12.70;99.90
51615;DHT22;37695;52.960;6.188;2023-04-12T11:19:44;12.70;99.90
51615;DHT22;37695;52.960;6.188;2023-04-12T11:22:11;12.80;99.90
51615;DHT22;37695;52.960;6.188;2023-04-12T11:24:46;12.90;99.90
51615;DHT22;37695;52.960;6.188;2023-04-12T11:27:13;12.90;99.90
51615;DHT22;37695;52.960;6.188;2023-04-12T11:29:39;12.90;99.90
51615;DHT22;37695;52.960;6.188;2023-04-12T11:32:05;12.80;99.90
51615;DHT22;37695;52.960;6.188;2023-04-12T11:34:35;12.80;99.90
51615;DHT22;37695;52.960;6.188;2023-04-12T11:37:02;12.90;99.90
51615;DHT22;37695;52.960;6.188;2023-04-12T11:39:33;12.70;99.90
51615;DHT22;37695;52.960;6.188;2023-04-12T11:41:59;12.80;99.90
51615;DHT22;37695;52.960;6.188;2023-04-12T11:44:27;12.90;99.90
51615;DHT22;37695;52.960;6.188;2023-04-12T11:46:53;13.10;99.90
51615;DHT22;37695;52.960;6.188;2023-04-12T11:49:21;13.20;99.90
51615;DHT22;37695;52.960;6.188;2023-04-12T11:51:47;13.10;99.90
51615;DHT22;37695;52.960;6.188;2023-04-12T11:54:13;13.00;99.90
51615;DHT22;37695;52.960;6.188;2023-04-12T11:56:40;12.80;99.90
51615;DHT22;37695;52.960;6.188;2023-04-12T11:59:06;12.70;99.90
51615;DHT22;37695;52.960;6.188;2023-04-12T12:01:35;12.60;99.90
51615;DHT22;37695;52.960;6.188;2023-04-12T12:04:02;12.50;99.90
51615;DHT22;37695;52.960;6.188;2023-04-12T12:06:27;12.40;99.90
51615;DHT22;37695;52.960;6.188;2023-04-12T12:08:54;12.50;99.90
51615;DHT22;37695;52.960;6.188;2023-04-12T12:11:20;12.70;99.90
51615;DHT22;37695;52.960;6.188;2023-04-12T12:13:51;12.70;99.90
51615;DHT22;37695;52.960;6.188;2023-04-12T12:16:17;12.80;99.90
51615;DHT22;37695;52.960;6.188;2023-04-12T12:18:47;12.80;99.90
51615;DHT22;37695;52.960;6.188;2023-04-12T12:21:13;12.80;99.90
51615;DHT22;37695;52.960;6.188;2023-04-12T12:23:41;12.90;99.90
51615;DHT22;37695;52.960;6.188;2023-04-12T12:26:07;13.10;99.90
51615;DHT22;37695;52.960;6.188;2023-04-12T12:28:39;13.00;99.90
51615;DHT22;37695;52.960;6.188;2023-04-12T12:31:18;12.80;99.90
51615;DHT22;37695;52.960;6.188;2023-04-12T12:33:44;12.80;99.90
51615;DHT22;37695;52.960;6.188;2023-04-12T12:36:11;12.80;99.90
51615;DHT22;37695;52.960;6.188;2023-04-12T12:38:40;13.00;99.90
51615;DHT22;37695;52.960;6.188;2023-04-12T12:41:19;13.00;99.90
51615;DHT22;37695;52.960;6.188;2023-04-12T12:43:46;13.30;99.90
51615;DHT22;37695;52.960;6.188;2023-04-12T12:46:13;13.50;99.90
51615;DHT22;37695;52.960;6.188;2023-04-12T12:48:46;13.50;99.90
51615;DHT22;37695;52.960;6.188;2023-04-12T12:51:15;13.50;99.90
51615;DHT22;37695;52.960;6.188;2023-04-12T12:53:44;13.50;99.90
51615;DHT22;37695;52.960;6.188;2023-04-12T12:56:12;13.50;99.90
51615;DHT22;37695;52.960;6.188;2023-04-12T12:58:38;13.40;99.90
51615;DHT22;37695;52.960;6.188;2023-04-12T13:01:04;13.50;99.90
51615;DHT22;37695;52.960;6.188;2023-04-12T13:03:31;13.60;99.90
51615;DHT22;37695;52.960;6.188;2023-04-12T13:05:56;13.40;99.90
51615;DHT22;37695;52.960;6.188;2023-04-12T13:08:23;13.30;99.90
51615;DHT22;37695;52.960;6.188;2023-04-12T13:10:49;12.90;99.90
51615;DHT22;37695;52.960;6.188;2023-04-12T13:13:15;12.60;99.90
51615;DHT22;37695;52.960;6.188;2023-04-12T13:15:41;12.50;99.90
51615;DHT22;37695;52.960;6.188;2023-04-12T13:18:08;12.40;99.90
51615;DHT22;37695;52.960;6.188;2023-04-12T13:20:33;12.30;99.90
51615;DHT22;37695;52.960;6.188;2023-04-12T13:22:59;12.20;99.90
51615;DHT22;37695;52.960;6.188;2023-04-12T13:25:25;12.20;99.90
51615;DHT22;37695;52.960;6.188;2023-04-12T13:27:51;12.20;99.90
51615;DHT22;37695;52.960;6.188;2023-04-12T13:30:19;12.30;99.90
51615;DHT22;37695;52.960;6.188;2023-04-12T13:32:45;12.40;99.90
51615;DHT22;37695;52.960;6.188;2023-04-12T13:35:11;12.70;99.90
51615;DHT22;37695;52.960;6.188;2023-04-12T13:37:37;12.70;99.90
51615;DHT22;37695;52.960;6.188;2023-04-12T13:40:03;12.70;99.90
51615;DHT22;37695;52.960;6.188;2023-04-12T13:42:29;12.60;99.90
51615;DHT22;37695;52.960;6.188;2023-04-12T13:44:55;12.60;99.90
51615;DHT22;37695;52.960;6.188;2023-04-12T13:47:21;12.50;99.90
51615;DHT22;37695;52.960;6.188;2023-04-12T13:49:47;12.40;99.90
51615;DHT22;37695;52.960;6.188;2023-04-12T13:52:13;12.30;99.90
51615;DHT22;37695;52.960;6.188;2023-04-12T13:54:38;12.30;99.90
51615;DHT22;37695;52.960;6.188;2023-04-12T13:57:05;12.30;99.90
51615;DHT22;37695;52.960;6.188;2023-04-12T13:59:31;12.50;99.90
51615;DHT22;37695;52.960;6.188;2023-04-12T14:01:57;12.50;99.90
51615;DHT22;37695;52.960;6.188;2023-04-12T14:04:22;12.60;99.90
51615;DHT22;37695;52.960;6.188;2023-04-12T14:06:48;12.50;99.90
51615;DHT22;37695;52.960;6.188;2023-04-12T14:09:28;12.30;99.90
51615;DHT22;37695;52.960;6.188;2023-04-12T14:11:55;12.20;99.90
51615;DHT22;37695;52.960;6.188;2023-04-12T14:14:22;12.20;99.90
51615;DHT22;37695;52.960;6.188;2023-04-12T14:16:49;12.20;99.90
51615;DHT22;37695;52.960;6.188;2023-04-12T14:19:15;12.20;99.90
51615;DHT22;37695;52.960;6.188;2023-04-12T14:21:41;12.40;99.90
51615;DHT22;37695;52.960;6.188;2023-04-12T14:24:06;12.40;99.90
51615;DHT22;37695;52.960;6.188;2023-04-12T14:26:32;12.50;99.90
51615;DHT22;37695;52.960;6.188;2023-04-12T14:28:58;12.40;99.90
51615;DHT22;37695;52.960;6.188;2023-04-12T14:31:23;12.40;99.90
51615;DHT22;37695;52.960;6.188;2023-04-12T14:33:51;12.20;99.90
51615;DHT22;37695;52.960;6.188;2023-04-12T14:36:17;12.10;99.90
51615;DHT22;37695;52.960;6.188;2023-04-12T14:38:43;11.90;99.90
51615;DHT22;37695;52.960;6.188;2023-04-12T14:41:09;11.40;99.90
51615;DHT22;37695;52.960;6.188;2023-04-12T14:43:35;10.40;99.90
51615;DHT22;37695;52.960;6.188;2023-04-12T14:46:01;9.90;99.90
51615;DHT22;37695;52.960;6.188;2023-04-12T14:48:26;9.50;99.90
51615;DHT22;37695;52.960;6.188;2023-04-12T14:50:52;9.20;99.90
51615;DHT22;37695;52.960;6.188;2023-04-12T14:53:19;9.20;99.90
51615;DHT22;37695;52.960;6.188;2023-04-12T14:55:45;9.40;99.90
51615;DHT22;37695;52.960;6.188;2023-04-12T14:58:11;9.60;99.90
51615;DHT22;37695;52.960;6.188;2023-04-12T15:00:38;9.80;99.90
51615;DHT22;37695;52.960;6.188;2023-04-12T15:03:04;10.00;99.90
51615;DHT22;37695;52.960;6.188;2023-04-12T15:05:31;10.20;99.90
51615;DHT22;37695;52.960;6.188;2023-04-12T15:07:57;10.50;99.90
51615;DHT22;37695;52.960;6.188;2023-04-12T15:10:23;10.90;99.90
51615;DHT22;37695;52.960;6.188;2023-04-12T15:12:49;11.20;99.90
51615;DHT22;37695;52.960;6.188;2023-04-12T15:15:14;11.50;99.90
51615;DHT22;37695;52.960;6.188;2023-04-12T15:17:40;11.70;99.90
51615;DHT22;37695;52.960;6.188;2023-04-12T15:20:06;12.00;99.90
51615;DHT22;37695;52.960;6.188;2023-04-12T15:22:38;12.10;99.90
51615;DHT22;37695;52.960;6.188;2023-04-12T15:25:04;12.40;99.90
51615;DHT22;37695;52.960;6.188;2023-04-12T15:27:31;12.40;99.90
51615;DHT22;37695;52.960;6.188;2023-04-12T15:29:57;12.50;99.90
51615;DHT22;37695;52.960;6.188;2023-04-12T15:32:23;12.60;99.90
51615;DHT22;37695;52.960;6.188;2023-04-12T15:34:51;12.80;99.90
51615;DHT22;37695;52.960;6.188;2023-04-12T15:37:17;12.90;99.90
51615;DHT22;37695;52.960;6.188;2023-04-12T15:39:43;13.20;99.90
51615;DHT22;37695;52.960;6.188;2023-04-12T15:42:09;13.60;99.90
51615;DHT22;37695;52.960;6.188;2023-04-12T15:44:35;13.80;99.90
51615;DHT22;37695;52.960;6.188;2023-04-12T15:47:01;14.00;99.90
51615;DHT22;37695;52.960;6.188;2023-04-12T15:49:26;14.00;99.90
51615;DHT22;37695;52.960;6.188;2023-04-12T15:51:53;14.00;99.90
51615;DHT22;37695;52.960;6.188;2023-04-12T15:54:19;13.90;99.90
51615;DHT22;37695;52.960;6.188;2023-04-12T15:56:44;13.80;99.90
51615;DHT22;37695;52.960;6.188;2023-04-12T15:59:10;13.70;99.90
51615;DHT22;37695;52.960;6.188;2023-04-12T16:01:36;13.50;99.90
51615;DHT22;37695;52.960;6.188;2023-04-12T16:04:04;13.40;99.90